sensor_id;sensor_type;location;lat;lon;timestamp;pressure;altitude;pressure_sealevel;temperature;humidity
45991;BME280;31721;41.740;-88.000;2024-03-22T00:00:00;99655.70;;;4.42;29.37
45991;BME280;31721;41.740;-88.000;2024-03-22T00:02:29;99654.28;;;4.48;29.43
45991;BME280;31721;41.740;-88.000;2024-03-22T00:04:57;99648.00;;;4.27;30.35
45991;BME280;31721;41.740;-88.000;2024-03-22T00:07:27;99645.33;;;4.20;29.87
45991;BME280;31721;41.740;-88.000;2024-03-22T00:09:55;99648.32;;;4.18;30.06
45991;BME280;31721;41.740;-88.000;2024-03-22T00:12:25;99643.30;;;4.07;30.04
45991;BME280;31721;41.740;-88.000;2024-03-22T00:14:53;99640.22;;;3.92;30.37
45991;BME280;31721;41.740;-88.000;2024-03-22T00:17:22;99644.27;;;3.97;30.66
45991;BME280;31721;41.740;-88.000;2024-03-22T00:19:51;99650.18;;;3.79;30.11
45991;BME280;31721;41.740;-88.000;2024-03-22T00:22:19;99647.71;;;3.68;30.60
45991;BME280;31721;41.740;-88.000;2024-03-22T00:24:48;99648.34;;;3.51;32.73
45991;BME280;31721;41.740;-88.000;2024-03-22T00:27:17;99652.28;;;3.82;30.72
45991;BME280;31721;41.740;-88.000;2024-03-22T00:29:46;99653.67;;;3.75;31.02
45991;BME280;31721;41.740;-88.000;2024-03-22T00:32:15;99643.30;;;3.49;30.91
45991;BME280;31721;41.740;-88.000;2024-03-22T00:34:43;99634.28;;;3.31;31.38
45991;BME280;31721;41.740;-88.000;2024-03-22T00:37:11;99628.96;;;3.49;31.33
45991;BME280;31721;41.740;-88.000;2024-03-22T00:39:39;99630.19;;;3.44;31.21
45991;BME280;31721;41.740;-88.000;2024-03-22T00:42:07;99633.98;;;3.43;32.03
45991;BME280;31721;41.740;-88.000;2024-03-22T00:44:40;99639.14;;;3.40;31.41
45991;BME280;31721;41.740;-88.000;2024-03-22T00:47:09;99645.93;;;3.47;31.54
45991;BME280;31721;41.740;-88.000;2024-03-22T00:49:36;99648.98;;;3.50;31.55
45991;BME280;31721;41.740;-88.000;2024-03-22T00:52:05;99654.70;;;3.43;31.19
45991;BME280;31721;41.740;-88.000;2024-03-22T00:54:33;99655.67;;;3.35;31.35
45991;BME280;31721;41.740;-88.000;2024-03-22T00:57:02;99643.37;;;3.42;31.26
45991;BME280;31721;41.740;-88.000;2024-03-22T00:59:30;99644.78;;;3.24;31.39
45991;BME280;31721;41.740;-88.000;2024-03-22T01:01:59;99641.59;;;3.22;31.52
45991;BME280;31721;41.740;-88.000;2024-03-22T01:04:27;99643.78;;;3.34;32.19
45991;BME280;31721;41.740;-88.000;2024-03-22T01:06:55;99644.95;;;3.18;31.42
45991;BME280;31721;41.740;-88.000;2024-03-22T01:09:22;99646.56;;;3.26;31.71
45991;BME280;31721;41.740;-88.000;2024-03-22T01:11:50;99646.52;;;3.24;31.69
45991;BME280;31721;41.740;-88.000;2024-03-22T01:14:18;99652.32;;;3.30;31.64
45991;BME280;31721;41.740;-88.000;2024-03-22T01:16:46;99654.42;;;3.33;31.74
45991;BME280;31721;41.740;-88.000;2024-03-22T01:19:14;99653.98;;;3.32;31.71
45991;BME280;31721;41.740;-88.000;2024-03-22T01:21:42;99654.26;;;3.36;31.71
45991;BME280;31721;41.740;-88.000;2024-03-22T01:24:10;99655.01;;;3.41;31.80
45991;BME280;31721;41.740;-88.000;2024-03-22T01:26:38;99646.42;;;3.42;31.85
45991;BME280;31721;41.740;-88.000;2024-03-22T01:29:07;99646.48;;;3.44;31.81
45991;BME280;31721;41.740;-88.000;2024-03-22T01:31:35;99644.87;;;3.47;31.83
45991;BME280;31721;41.740;-88.000;2024-03-22T01:34:03;99638.29;;;3.56;31.71
45991;BME280;31721;41.740;-88.000;2024-03-22T01:36:31;99641.55;;;3.62;31.64
45991;BME280;31721;41.740;-88.000;2024-03-22T01:39:00;99628.52;;;3.58;31.80
45991;BME280;31721;41.740;-88.000;2024-03-22T01:41:28;99628.44;;;3.45;31.53
45991;BME280;31721;41.740;-88.000;2024-03-22T01:43:57;99626.86;;;3.34;31.63
45991;BME280;31721;41.740;-88.000;2024-03-22T01:46:25;99635.50;;;3.24;31.84
45991;BME280;31721;41.740;-88.000;2024-03-22T01:48:53;99627.13;;;3.33;31.81
45991;BME280;31721;41.740;-88.000;2024-03-22T01:51:22;99622.02;;;3.30;31.59
45991;BME280;31721;41.740;-88.000;2024-03-22T01:53:51;99623.44;;;3.15;31.72
45991;BME280;31721;41.740;-88.000;2024-03-22T01:56:21;99627.12;;;3.19;31.81
45991;BME280;31721;41.740;-88.000;2024-03-22T01:58:50;99625.32;;;3.07;31.84
45991;BME280;31721;41.740;-88.000;2024-03-22T02:01:18;99613.20;;;3.02;31.84
45991;BME280;31721;41.740;-88.000;2024-03-22T02:03:47;99610.31;;;3.02;32.10
45991;BME280;31721;41.740;-88.000;2024-03-22T02:06:15;99613.20;;;2.92;32.06
45991;BME280;31721;41.740;-88.000;2024-03-22T02:08:44;99621.16;;;2.99;31.99
45991;BME280;31721;41.740;-88.000;2024-03-22T02:11:11;99628.11;;;2.86;32.14
45991;BME280;31721;41.740;-88.000;2024-03-22T02:13:40;99636.16;;;2.83;32.22
45991;BME280;31721;41.740;-88.000;2024-03-22T02:16:08;99641.30;;;2.78;32.48
45991;BME280;31721;41.740;-88.000;2024-03-22T02:18:36;99644.67;;;2.87;32.60
45991;BME280;31721;41.740;-88.000;2024-03-22T02:21:04;99639.84;;;2.95;32.61
45991;BME280;31721;41.740;-88.000;2024-03-22T02:23:33;99636.39;;;2.95;32.50
45991;BME280;31721;41.740;-88.000;2024-03-22T02:26:02;99633.17;;;2.84;32.71
45991;BME280;31721;41.740;-88.000;2024-03-22T02:28:31;99634.07;;;2.96;33.04
45991;BME280;31721;41.740;-88.000;2024-03-22T02:30:59;99631.67;;;2.73;32.76
45991;BME280;31721;41.740;-88.000;2024-03-22T02:33:28;99620.90;;;2.92;33.00
45991;BME280;31721;41.740;-88.000;2024-03-22T02:35:57;99610.63;;;2.93;32.93
45991;BME280;31721;41.740;-88.000;2024-03-22T02:38:25;99606.07;;;2.86;33.15
45991;BME280;31721;41.740;-88.000;2024-03-22T02:40:53;99597.42;;;3.00;33.16
45991;BME280;31721;41.740;-88.000;2024-03-22T02:43:21;99594.80;;;3.01;33.34
45991;BME280;31721;41.740;-88.000;2024-03-22T02:45:50;99586.96;;;2.82;33.30
45991;BME280;31721;41.740;-88.000;2024-03-22T02:48:18;99576.75;;;3.05;33.28
45991;BME280;31721;41.740;-88.000;2024-03-22T02:50:46;99578.22;;;2.97;33.38
45991;BME280;31721;41.740;-88.000;2024-03-22T02:53:14;99583.99;;;2.94;33.41
45991;BME280;31721;41.740;-88.000;2024-03-22T02:55:42;99579.80;;;2.92;33.33
45991;BME280;31721;41.740;-88.000;2024-03-22T02:58:10;99572.98;;;2.83;33.23
45991;BME280;31721;41.740;-88.000;2024-03-22T03:00:38;99566.67;;;3.03;33.41
45991;BME280;31721;41.740;-88.000;2024-03-22T03:03:06;99562.71;;;3.02;33.32
45991;BME280;31721;41.740;-88.000;2024-03-22T03:05:34;99561.06;;;2.97;33.30
45991;BME280;31721;41.740;-88.000;2024-03-22T03:08:03;99546.06;;;2.97;33.63
45991;BME280;31721;41.740;-88.000;2024-03-22T03:10:31;99530.35;;;2.99;33.57
45991;BME280;31721;41.740;-88.000;2024-03-22T03:12:59;99533.53;;;2.94;33.44
45991;BME280;31721;41.740;-88.000;2024-03-22T03:15:28;99527.53;;;2.55;33.72
45991;BME280;31721;41.740;-88.000;2024-03-22T03:17:57;99523.06;;;2.67;34.24
45991;BME280;31721;41.740;-88.000;2024-03-22T03:20:25;99528.41;;;2.97;33.73
45991;BME280;31721;41.740;-88.000;2024-03-22T03:22:53;99513.85;;;2.97;33.72
45991;BME280;31721;41.740;-88.000;2024-03-22T03:25:22;99517.10;;;3.00;33.92
45991;BME280;31721;41.740;-88.000;2024-03-22T03:27:50;99520.62;;;3.01;33.85
45991;BME280;31721;41.740;-88.000;2024-03-22T03:30:18;99540.74;;;3.03;33.82
45991;BME280;31721;41.740;-88.000;2024-03-22T03:32:47;99551.79;;;2.83;33.76
45991;BME280;31721;41.740;-88.000;2024-03-22T03:35:15;99548.81;;;2.70;33.86
45991;BME280;31721;41.740;-88.000;2024-03-22T03:37:43;99557.44;;;2.84;33.81
45991;BME280;31721;41.740;-88.000;2024-03-22T03:40:11;99562.37;;;2.96;33.95
45991;BME280;31721;41.740;-88.000;2024-03-22T03:42:39;99568.69;;;2.86;33.80
45991;BME280;31721;41.740;-88.000;2024-03-22T03:45:08;99574.10;;;2.87;33.62
45991;BME280;31721;41.740;-88.000;2024-03-22T03:47:36;99573.03;;;2.79;33.48
45991;BME280;31721;41.740;-88.000;2024-03-22T03:50:05;99567.67;;;2.85;33.61
45991;BME280;31721;41.740;-88.000;2024-03-22T03:52:33;99560.07;;;2.79;33.55
45991;BME280;31721;41.740;-88.000;2024-03-22T03:55:02;99561.58;;;2.89;33.61
45991;BME280;31721;41.740;-88.000;2024-03-22T03:57:30;99569.70;;;2.87;33.55
45991;BME280;31721;41.740;-88.000;2024-03-22T03:59:57;99571.52;;;2.75;33.42
45991;BME280;31721;41.740;-88.000;2024-03-22T04:02:25;99573.09;;;2.78;33.42
45991;BME280;31721;41.740;-88.000;2024-03-22T04:04:53;99560.79;;;2.88;33.17
45991;BME280;31721;41.740;-88.000;2024-03-22T04:07:21;99563.61;;;2.92;33.15
45991;BME280;31721;41.740;-88.000;2024-03-22T04:09:49;99564.40;;;2.88;33.25
45991;BME280;31721;41.740;-88.000;2024-03-22T04:12:16;99573.05;;;2.77;33.05
45991;BME280;31721;41.740;-88.000;2024-03-22T04:14:44;99563.46;;;2.99;32.91
45991;BME280;31721;41.740;-88.000;2024-03-22T04:17:12;99560.25;;;2.86;32.83
45991;BME280;31721;41.740;-88.000;2024-03-22T04:19:40;99546.35;;;2.87;32.87
45991;BME280;31721;41.740;-88.000;2024-03-22T04:22:07;99537.37;;;2.84;32.70
45991;BME280;31721;41.740;-88.000;2024-03-22T04:24:34;99539.01;;;2.74;32.73
45991;BME280;31721;41.740;-88.000;2024-03-22T04:27:03;99534.07;;;2.84;32.50
45991;BME280;31721;41.740;-88.000;2024-03-22T04:29:31;99519.61;;;2.89;32.38
45991;BME280;31721;41.740;-88.000;2024-03-22T04:31:58;99516.68;;;2.92;32.31
45991;BME280;31721;41.740;-88.000;2024-03-22T04:34:26;99523.08;;;2.69;32.37
45991;BME280;31721;41.740;-88.000;2024-03-22T04:36:54;99533.05;;;2.63;32.39
45991;BME280;31721;41.740;-88.000;2024-03-22T04:39:22;99541.69;;;2.69;32.46
45991;BME280;31721;41.740;-88.000;2024-03-22T04:41:50;99542.88;;;2.70;32.84
45991;BME280;31721;41.740;-88.000;2024-03-22T04:44:18;99549.42;;;2.74;32.40
45991;BME280;31721;41.740;-88.000;2024-03-22T04:46:47;99548.00;;;2.60;32.31
45991;BME280;31721;41.740;-88.000;2024-03-22T04:49:15;99533.54;;;2.61;32.48
45991;BME280;31721;41.740;-88.000;2024-03-22T04:51:43;99525.92;;;2.71;32.67
45991;BME280;31721;41.740;-88.000;2024-03-22T04:54:10;99543.24;;;2.89;32.49
45991;BME280;31721;41.740;-88.000;2024-03-22T04:56:39;99553.12;;;2.82;32.52
45991;BME280;31721;41.740;-88.000;2024-03-22T04:59:07;99552.47;;;2.85;32.61
45991;BME280;31721;41.740;-88.000;2024-03-22T05:01:35;99558.91;;;2.87;32.35
45991;BME280;31721;41.740;-88.000;2024-03-22T05:04:03;99546.34;;;2.83;32.54
45991;BME280;31721;41.740;-88.000;2024-03-22T05:06:30;99539.26;;;2.91;32.53
45991;BME280;31721;41.740;-88.000;2024-03-22T05:08:58;99539.83;;;2.71;32.37
45991;BME280;31721;41.740;-88.000;2024-03-22T05:11:26;99535.09;;;2.90;32.51
45991;BME280;31721;41.740;-88.000;2024-03-22T05:13:54;99508.60;;;2.76;32.58
45991;BME280;31721;41.740;-88.000;2024-03-22T05:16:21;99506.11;;;2.78;32.61
45991;BME280;31721;41.740;-88.000;2024-03-22T05:18:49;99503.72;;;2.98;32.59
45991;BME280;31721;41.740;-88.000;2024-03-22T05:21:17;99491.84;;;2.89;32.51
45991;BME280;31721;41.740;-88.000;2024-03-22T05:23:44;99488.43;;;2.87;32.82
45991;BME280;31721;41.740;-88.000;2024-03-22T05:26:13;99478.78;;;2.87;32.59
45991;BME280;31721;41.740;-88.000;2024-03-22T05:28:40;99473.31;;;2.88;32.75
45991;BME280;31721;41.740;-88.000;2024-03-22T05:31:08;99476.97;;;2.82;32.46
45991;BME280;31721;41.740;-88.000;2024-03-22T05:33:36;99478.97;;;2.78;32.47
45991;BME280;31721;41.740;-88.000;2024-03-22T05:36:04;99482.80;;;2.79;32.56
45991;BME280;31721;41.740;-88.000;2024-03-22T05:38:32;99484.98;;;2.80;32.43
45991;BME280;31721;41.740;-88.000;2024-03-22T05:41:04;99495.12;;;2.77;32.48
45991;BME280;31721;41.740;-88.000;2024-03-22T05:43:31;99482.04;;;2.77;32.76
45991;BME280;31721;41.740;-88.000;2024-03-22T05:45:59;99491.12;;;2.81;32.55
45991;BME280;31721;41.740;-88.000;2024-03-22T05:48:26;99524.88;;;2.83;32.48
45991;BME280;31721;41.740;-88.000;2024-03-22T05:50:54;99511.89;;;2.90;32.57
45991;BME280;31721;41.740;-88.000;2024-03-22T05:53:21;99501.67;;;2.82;32.54
45991;BME280;31721;41.740;-88.000;2024-03-22T05:55:49;99508.03;;;2.76;32.06
45991;BME280;31721;41.740;-88.000;2024-03-22T05:58:16;99511.12;;;2.76;32.46
45991;BME280;31721;41.740;-88.000;2024-03-22T06:00:44;99496.20;;;2.64;32.48
45991;BME280;31721;41.740;-88.000;2024-03-22T06:03:12;99489.63;;;2.77;32.65
45991;BME280;31721;41.740;-88.000;2024-03-22T06:05:39;99486.43;;;2.61;32.53
45991;BME280;31721;41.740;-88.000;2024-03-22T06:08:07;99481.44;;;2.77;32.45
45991;BME280;31721;41.740;-88.000;2024-03-22T06:10:34;99485.30;;;2.73;32.41
45991;BME280;31721;41.740;-88.000;2024-03-22T06:13:02;99480.49;;;2.80;32.42
45991;BME280;31721;41.740;-88.000;2024-03-22T06:15:29;99465.37;;;2.82;32.51
45991;BME280;31721;41.740;-88.000;2024-03-22T06:17:57;99465.28;;;2.79;32.49
45991;BME280;31721;41.740;-88.000;2024-03-22T06:20:25;99464.95;;;2.67;32.47
45991;BME280;31721;41.740;-88.000;2024-03-22T06:22:53;99457.49;;;2.82;32.52
45991;BME280;31721;41.740;-88.000;2024-03-22T06:25:21;99453.83;;;2.75;32.36
45991;BME280;31721;41.740;-88.000;2024-03-22T06:27:49;99460.54;;;2.72;32.36
45991;BME280;31721;41.740;-88.000;2024-03-22T06:30:17;99444.43;;;2.60;32.30
45991;BME280;31721;41.740;-88.000;2024-03-22T06:32:44;99422.87;;;2.48;32.36
45991;BME280;31721;41.740;-88.000;2024-03-22T06:35:12;99410.92;;;2.64;32.56
45991;BME280;31721;41.740;-88.000;2024-03-22T06:37:40;99418.13;;;2.73;32.42
45991;BME280;31721;41.740;-88.000;2024-03-22T06:40:09;99417.96;;;2.74;32.43
45991;BME280;31721;41.740;-88.000;2024-03-22T06:42:36;99408.72;;;2.78;32.31
45991;BME280;31721;41.740;-88.000;2024-03-22T06:45:04;99424.17;;;2.74;32.33
45991;BME280;31721;41.740;-88.000;2024-03-22T06:47:32;99418.42;;;2.62;32.32
45991;BME280;31721;41.740;-88.000;2024-03-22T06:50:00;99409.46;;;2.88;32.39
45991;BME280;31721;41.740;-88.000;2024-03-22T06:52:27;99381.60;;;2.87;32.21
45991;BME280;31721;41.740;-88.000;2024-03-22T06:54:55;99360.33;;;2.91;32.33
45991;BME280;31721;41.740;-88.000;2024-03-22T06:57:22;99345.04;;;2.87;31.97
45991;BME280;31721;41.740;-88.000;2024-03-22T06:59:50;99348.84;;;2.71;31.85
45991;BME280;31721;41.740;-88.000;2024-03-22T07:02:17;99335.33;;;2.42;32.02
45991;BME280;31721;41.740;-88.000;2024-03-22T07:04:45;99355.18;;;2.54;31.96
45991;BME280;31721;41.740;-88.000;2024-03-22T07:07:13;99341.12;;;2.47;31.79
45991;BME280;31721;41.740;-88.000;2024-03-22T07:09:41;99315.94;;;2.32;32.07
45991;BME280;31721;41.740;-88.000;2024-03-22T07:12:08;99319.32;;;2.51;31.80
45991;BME280;31721;41.740;-88.000;2024-03-22T07:14:36;99330.10;;;2.50;31.65
45991;BME280;31721;41.740;-88.000;2024-03-22T07:17:03;99313.15;;;2.52;31.38
45991;BME280;31721;41.740;-88.000;2024-03-22T07:19:31;99304.32;;;2.33;31.73
45991;BME280;31721;41.740;-88.000;2024-03-22T07:21:58;99290.30;;;2.24;31.45
45991;BME280;31721;41.740;-88.000;2024-03-22T07:24:26;99288.29;;;2.47;31.63
45991;BME280;31721;41.740;-88.000;2024-03-22T07:26:55;99296.36;;;2.32;31.50
45991;BME280;31721;41.740;-88.000;2024-03-22T07:29:22;99286.11;;;2.38;31.55
45991;BME280;31721;41.740;-88.000;2024-03-22T07:31:50;99278.08;;;2.48;31.47
45991;BME280;31721;41.740;-88.000;2024-03-22T07:34:22;99269.89;;;2.67;31.21
45991;BME280;31721;41.740;-88.000;2024-03-22T07:36:50;99275.06;;;2.53;31.20
45991;BME280;31721;41.740;-88.000;2024-03-22T07:39:18;99288.26;;;2.40;31.27
45991;BME280;31721;41.740;-88.000;2024-03-22T07:41:45;99314.92;;;2.40;31.26
45991;BME280;31721;41.740;-88.000;2024-03-22T07:44:12;99320.88;;;2.62;31.28
45991;BME280;31721;41.740;-88.000;2024-03-22T07:46:40;99333.97;;;2.72;31.21
45991;BME280;31721;41.740;-88.000;2024-03-22T07:49:08;99351.01;;;2.51;31.49
45991;BME280;31721;41.740;-88.000;2024-03-22T07:51:35;99380.46;;;2.78;31.28
45991;BME280;31721;41.740;-88.000;2024-03-22T07:54:03;99400.34;;;2.56;31.38
45991;BME280;31721;41.740;-88.000;2024-03-22T07:56:30;99419.21;;;2.53;31.57
45991;BME280;31721;41.740;-88.000;2024-03-22T07:58:58;99414.72;;;2.56;31.78
45991;BME280;31721;41.740;-88.000;2024-03-22T08:01:25;99427.74;;;2.50;31.78
45991;BME280;31721;41.740;-88.000;2024-03-22T08:03:53;99427.24;;;2.60;31.83
45991;BME280;31721;41.740;-88.000;2024-03-22T08:06:20;99440.39;;;2.46;31.79
45991;BME280;31721;41.740;-88.000;2024-03-22T08:08:48;99426.25;;;2.50;31.95
45991;BME280;31721;41.740;-88.000;2024-03-22T08:11:15;99405.04;;;2.62;32.08
45991;BME280;31721;41.740;-88.000;2024-03-22T08:13:43;99411.67;;;2.50;32.11
45991;BME280;31721;41.740;-88.000;2024-03-22T08:16:11;99405.55;;;2.60;32.17
45991;BME280;31721;41.740;-88.000;2024-03-22T08:18:38;99379.08;;;2.65;32.31
45991;BME280;31721;41.740;-88.000;2024-03-22T08:21:06;99378.43;;;2.72;32.24
45991;BME280;31721;41.740;-88.000;2024-03-22T08:23:33;99379.69;;;2.66;31.98
45991;BME280;31721;41.740;-88.000;2024-03-22T08:26:01;99371.34;;;2.68;32.11
45991;BME280;31721;41.740;-88.000;2024-03-22T08:28:28;99387.86;;;2.66;32.10
45991;BME280;31721;41.740;-88.000;2024-03-22T08:30:56;99381.98;;;2.45;32.12
45991;BME280;31721;41.740;-88.000;2024-03-22T08:33:23;99384.39;;;2.64;31.90
45991;BME280;31721;41.740;-88.000;2024-03-22T08:35:51;99392.10;;;2.54;32.31
45991;BME280;31721;41.740;-88.000;2024-03-22T08:38:18;99420.44;;;2.53;32.26
45991;BME280;31721;41.740;-88.000;2024-03-22T08:40:46;99416.74;;;2.49;32.05
45991;BME280;31721;41.740;-88.000;2024-03-22T08:43:13;99407.53;;;2.60;32.20
45991;BME280;31721;41.740;-88.000;2024-03-22T08:45:41;99389.56;;;2.51;32.41
45991;BME280;31721;41.740;-88.000;2024-03-22T08:48:08;99395.61;;;2.58;32.24
45991;BME280;31721;41.740;-88.000;2024-03-22T08:50:36;99390.30;;;2.55;32.52
45991;BME280;31721;41.740;-88.000;2024-03-22T08:53:04;99375.45;;;2.44;32.98
45991;BME280;31721;41.740;-88.000;2024-03-22T08:55:31;99382.50;;;2.50;33.30
45991;BME280;31721;41.740;-88.000;2024-03-22T08:57:59;99397.13;;;2.52;33.42
45991;BME280;31721;41.740;-88.000;2024-03-22T09:00:26;99403.41;;;2.73;33.57
45991;BME280;31721;41.740;-88.000;2024-03-22T09:02:54;99408.53;;;2.63;33.84
45991;BME280;31721;41.740;-88.000;2024-03-22T09:05:21;99393.53;;;2.52;34.16
45991;BME280;31721;41.740;-88.000;2024-03-22T09:07:49;99369.13;;;2.54;34.88
45991;BME280;31721;41.740;-88.000;2024-03-22T09:10:16;99340.82;;;2.60;35.43
45991;BME280;31721;41.740;-88.000;2024-03-22T09:12:44;99326.10;;;2.54;35.58
45991;BME280;31721;41.740;-88.000;2024-03-22T09:15:12;99324.98;;;2.45;35.63
45991;BME280;31721;41.740;-88.000;2024-03-22T09:17:39;99372.21;;;2.08;36.25
45991;BME280;31721;41.740;-88.000;2024-03-22T09:20:08;99399.89;;;1.90;35.91
45991;BME280;31721;41.740;-88.000;2024-03-22T09:22:35;99369.62;;;1.51;37.67
45991;BME280;31721;41.740;-88.000;2024-03-22T09:25:04;99338.01;;;1.50;37.17
45991;BME280;31721;41.740;-88.000;2024-03-22T09:27:31;99361.59;;;1.41;37.99
45991;BME280;31721;41.740;-88.000;2024-03-22T09:29:59;99336.43;;;1.01;38.43
45991;BME280;31721;41.740;-88.000;2024-03-22T09:32:27;99326.30;;;1.18;38.29
45991;BME280;31721;41.740;-88.000;2024-03-22T09:34:54;99319.25;;;1.25;39.26
45991;BME280;31721;41.740;-88.000;2024-03-22T09:37:22;99336.66;;;1.03;39.39
45991;BME280;31721;41.740;-88.000;2024-03-22T09:39:49;99343.46;;;1.12;39.59
45991;BME280;31721;41.740;-88.000;2024-03-22T09:42:17;99354.47;;;1.11;39.51
45991;BME280;31721;41.740;-88.000;2024-03-22T09:44:48;99359.37;;;0.90;41.46
45991;BME280;31721;41.740;-88.000;2024-03-22T09:47:16;99357.85;;;0.94;40.12
45991;BME280;31721;41.740;-88.000;2024-03-22T09:49:45;99368.81;;;0.92;40.47
45991;BME280;31721;41.740;-88.000;2024-03-22T09:52:14;99366.54;;;0.92;41.11
45991;BME280;31721;41.740;-88.000;2024-03-22T09:54:42;99366.61;;;0.83;40.89
45991;BME280;31721;41.740;-88.000;2024-03-22T09:57:13;99375.97;;;0.77;41.09
45991;BME280;31721;41.740;-88.000;2024-03-22T09:59:41;99363.47;;;0.79;41.88
45991;BME280;31721;41.740;-88.000;2024-03-22T10:02:11;99353.68;;;0.57;41.49
45991;BME280;31721;41.740;-88.000;2024-03-22T10:04:39;99353.31;;;0.63;42.30
45991;BME280;31721;41.740;-88.000;2024-03-22T10:07:08;99353.40;;;0.50;43.25
45991;BME280;31721;41.740;-88.000;2024-03-22T10:09:35;99344.09;;;0.63;42.68
45991;BME280;31721;41.740;-88.000;2024-03-22T10:12:03;99331.11;;;0.39;44.69
45991;BME280;31721;41.740;-88.000;2024-03-22T10:14:31;99359.88;;;0.51;42.91
45991;BME280;31721;41.740;-88.000;2024-03-22T10:16:58;99344.82;;;0.46;43.09
45991;BME280;31721;41.740;-88.000;2024-03-22T10:19:26;99345.36;;;0.51;43.33
45991;BME280;31721;41.740;-88.000;2024-03-22T10:22:00;99358.86;;;0.60;44.41
45991;BME280;31721;41.740;-88.000;2024-03-22T10:24:28;99368.61;;;0.52;43.93
45991;BME280;31721;41.740;-88.000;2024-03-22T10:26:56;99372.59;;;0.61;43.90
45991;BME280;31721;41.740;-88.000;2024-03-22T10:29:23;99359.64;;;0.63;43.79
45991;BME280;31721;41.740;-88.000;2024-03-22T10:31:52;99365.91;;;0.33;44.51
45991;BME280;31721;41.740;-88.000;2024-03-22T10:34:21;99374.39;;;0.58;44.32
45991;BME280;31721;41.740;-88.000;2024-03-22T10:36:49;99373.98;;;0.68;45.20
45991;BME280;31721;41.740;-88.000;2024-03-22T10:39:18;99373.44;;;0.55;45.28
45991;BME280;31721;41.740;-88.000;2024-03-22T10:41:46;99363.69;;;0.67;45.68
45991;BME280;31721;41.740;-88.000;2024-03-22T10:44:14;99377.60;;;0.39;45.68
45991;BME280;31721;41.740;-88.000;2024-03-22T10:46:45;99390.25;;;0.32;45.81
45991;BME280;31721;41.740;-88.000;2024-03-22T10:49:16;99407.53;;;0.46;46.58
45991;BME280;31721;41.740;-88.000;2024-03-22T10:51:46;99409.30;;;0.55;45.47
45991;BME280;31721;41.740;-88.000;2024-03-22T10:54:16;99421.90;;;0.46;45.65
45991;BME280;31721;41.740;-88.000;2024-03-22T10:56:46;99418.90;;;0.49;46.08
45991;BME280;31721;41.740;-88.000;2024-03-22T10:59:18;99429.53;;;0.56;46.74
45991;BME280;31721;41.740;-88.000;2024-03-22T11:01:46;99430.72;;;0.53;47.14
45991;BME280;31721;41.740;-88.000;2024-03-22T11:04:16;99417.45;;;0.62;46.64
45991;BME280;31721;41.740;-88.000;2024-03-22T11:06:48;99413.90;;;0.37;47.68
45991;BME280;31721;41.740;-88.000;2024-03-22T11:09:21;99400.62;;;0.48;47.94
45991;BME280;31721;41.740;-88.000;2024-03-22T11:11:52;99411.21;;;0.64;46.24
45991;BME280;31721;41.740;-88.000;2024-03-22T11:14:20;99418.21;;;0.54;46.80
45991;BME280;31721;41.740;-88.000;2024-03-22T11:16:48;99427.14;;;0.42;48.13
45991;BME280;31721;41.740;-88.000;2024-03-22T11:19:16;99446.31;;;0.42;47.45
45991;BME280;31721;41.740;-88.000;2024-03-22T11:21:43;99449.02;;;0.24;48.31
45991;BME280;31721;41.740;-88.000;2024-03-22T11:24:11;99455.82;;;0.52;47.58
45991;BME280;31721;41.740;-88.000;2024-03-22T11:26:39;99454.22;;;0.62;47.49
45991;BME280;31721;41.740;-88.000;2024-03-22T11:29:07;99426.88;;;0.37;47.62
45991;BME280;31721;41.740;-88.000;2024-03-22T11:31:35;99416.82;;;0.29;49.31
45991;BME280;31721;41.740;-88.000;2024-03-22T11:34:02;99417.17;;;0.57;48.11
45991;BME280;31721;41.740;-88.000;2024-03-22T11:36:30;99419.37;;;0.49;47.97
45991;BME280;31721;41.740;-88.000;2024-03-22T11:38:58;99416.29;;;0.37;49.36
45991;BME280;31721;41.740;-88.000;2024-03-22T11:41:28;99422.13;;;0.44;48.52
45991;BME280;31721;41.740;-88.000;2024-03-22T11:43:57;99432.21;;;0.17;49.69
45991;BME280;31721;41.740;-88.000;2024-03-22T11:46:25;99440.64;;;0.38;48.62
45991;BME280;31721;41.740;-88.000;2024-03-22T11:48:54;99440.12;;;0.27;48.90
45991;BME280;31721;41.740;-88.000;2024-03-22T11:51:22;99437.77;;;0.30;49.57
45991;BME280;31721;41.740;-88.000;2024-03-22T11:53:50;99432.71;;;0.28;49.42
45991;BME280;31721;41.740;-88.000;2024-03-22T11:56:19;99427.25;;;0.32;49.43
45991;BME280;31721;41.740;-88.000;2024-03-22T11:58:47;99405.09;;;0.27;49.52
45991;BME280;31721;41.740;-88.000;2024-03-22T12:01:15;99388.51;;;0.30;50.53
45991;BME280;31721;41.740;-88.000;2024-03-22T12:03:44;99376.60;;;0.19;50.28
45991;BME280;31721;41.740;-88.000;2024-03-22T12:06:13;99388.32;;;0.06;49.57
45991;BME280;31721;41.740;-88.000;2024-03-22T12:08:42;99392.08;;;0.18;49.48
45991;BME280;31721;41.740;-88.000;2024-03-22T12:11:10;99369.50;;;-0.08;49.92
45991;BME280;31721;41.740;-88.000;2024-03-22T12:13:38;99365.22;;;-0.19;50.46
45991;BME280;31721;41.740;-88.000;2024-03-22T12:16:06;99367.91;;;-0.06;51.99
45991;BME280;31721;41.740;-88.000;2024-03-22T12:18:34;99363.07;;;0.04;51.59
45991;BME280;31721;41.740;-88.000;2024-03-22T12:21:01;99357.44;;;-0.06;50.62
45991;BME280;31721;41.740;-88.000;2024-03-22T12:23:29;99368.48;;;-0.22;53.65
45991;BME280;31721;41.740;-88.000;2024-03-22T12:25:57;99371.20;;;-0.07;51.56
45991;BME280;31721;41.740;-88.000;2024-03-22T12:28:25;99359.37;;;-0.46;53.88
45991;BME280;31721;41.740;-88.000;2024-03-22T12:30:53;99360.15;;;-0.22;52.56
45991;BME280;31721;41.740;-88.000;2024-03-22T12:33:20;99366.57;;;0.02;51.35
45991;BME280;31721;41.740;-88.000;2024-03-22T12:35:48;99365.06;;;-0.04;52.29
45991;BME280;31721;41.740;-88.000;2024-03-22T12:38:15;99359.44;;;-0.29;54.01
45991;BME280;31721;41.740;-88.000;2024-03-22T12:40:43;99361.34;;;-0.11;52.67
45991;BME280;31721;41.740;-88.000;2024-03-22T12:43:11;99361.30;;;-0.03;51.91
45991;BME280;31721;41.740;-88.000;2024-03-22T12:45:39;99357.46;;;-0.29;51.93
45991;BME280;31721;41.740;-88.000;2024-03-22T12:48:06;99355.84;;;-0.07;52.96
45991;BME280;31721;41.740;-88.000;2024-03-22T12:50:35;99364.34;;;-0.11;54.34
45991;BME280;31721;41.740;-88.000;2024-03-22T12:53:03;99358.13;;;0.01;52.29